createdAt,value
2023-05-12T00:00:03.135Z,13.22
2023-05-12T00:02:29.647Z,13.50
2023-05-12T00:04:56.637Z,13.48
2023-05-12T00:07:23.342Z,13.33
2023-05-12T00:09:49.775Z,13.44
2023-05-12T00:12:16.560Z,13.24
2023-05-12T00:14:42.970Z,13.40
2023-05-12T00:17:09.956Z,13.14
2023-05-12T00:19:36.519Z,13.37
2023-05-12T00:22:03.092Z,13.25
2023-05-12T00:24:30.533Z,13.33
2023-05-12T00:26:57.116Z,13.32
2023-05-12T00:29:23.658Z,13.33
2023-05-12T00:31:52.410Z,13.31
2023-05-12T00:34:18.947Z,13.02
2023-05-12T00:36:45.331Z,13.34
2023-05-12T00:39:12.178Z,13.35
2023-05-12T00:41:38.690Z,13.29
2023-05-12T00:44:05.490Z,13.21
2023-05-12T00:46:32.001Z,13.44
2023-05-12T00:48:58.940Z,13.48
2023-05-12T00:51:26.227Z,13.50
2023-05-12T00:53:53.147Z,13.51
2023-05-12T00:56:20.062Z,13.57
2023-05-12T00:58:47.057Z,13.61
2023-05-12T01:01:13.751Z,13.66
2023-05-12T01:03:40.323Z,13.43
2023-05-12T01:06:19.740Z,13.82
2023-05-12T01:08:47.392Z,13.66
2023-05-12T01:11:13.824Z,13.89
2023-05-12T01:13:41.255Z,13.86
2023-05-12T01:16:12.191Z,13.99
2023-05-12T01:18:41.365Z,13.97
2023-05-12T01:21:08.357Z,14.07
2023-05-12T01:23:39.783Z,14.11
2023-05-12T01:26:10.351Z,14.13
2023-05-12T01:28:37.719Z,14.21
2023-05-12T01:31:06.355Z,14.25
2023-05-12T01:33:33.999Z,14.28
2023-05-12T01:36:00.698Z,14.19
2023-05-12T01:38:27.452Z,14.21
2023-05-12T01:40:53.838Z,14.38
2023-05-12T01:43:22.160Z,14.41
2023-05-12T01:45:48.934Z,14.45
2023-05-12T01:48:15.386Z,14.29
2023-05-12T01:50:42.362Z,14.41
2023-05-12T01:53:10.509Z,14.39
2023-05-12T01:55:37.366Z,14.54
2023-05-12T01:58:04.103Z,14.57
2023-05-12T02:00:30.557Z,14.58
2023-05-12T02:02:57.210Z,14.57
2023-05-12T02:05:23.871Z,14.36
2023-05-12T02:07:50.508Z,14.62
2023-05-12T02:10:17.840Z,14.57
2023-05-12T02:12:44.444Z,14.61
2023-05-12T02:15:11.130Z,14.59
2023-05-12T02:17:37.566Z,14.59
2023-05-12T02:20:05.386Z,14.50
2023-05-12T02:22:31.797Z,14.65
2023-05-12T02:24:58.354Z,14.65
2023-05-12T02:27:24.760Z,14.59
2023-05-12T02:29:51.255Z,14.66
2023-05-12T02:32:17.792Z,14.68
2023-05-12T02:34:44.249Z,14.66
2023-05-12T02:37:10.722Z,14.67
2023-05-12T02:39:37.104Z,14.62
2023-05-12T02:42:03.659Z,14.61
2023-05-12T02:44:30.296Z,14.57
2023-05-12T02:46:57.963Z,14.65
2023-05-12T02:49:24.379Z,14.64
2023-05-12T02:51:50.840Z,14.59
2023-05-12T02:54:17.259Z,14.65
2023-05-12T02:56:43.706Z,14.53
2023-05-12T02:59:10.159Z,14.58
2023-05-12T03:01:36.646Z,14.53
2023-05-12T03:04:03.294Z,14.62
2023-05-12T03:06:30.356Z,14.49
2023-05-12T03:08:56.808Z,14.62
2023-05-12T03:11:23.274Z,14.38
2023-05-12T03:13:49.720Z,14.54
2023-05-12T03:16:19.459Z,14.58
2023-05-12T03:18:46.396Z,14.62
2023-05-12T03:21:13.120Z,14.50
2023-05-12T03:23:39.692Z,14.46
2023-05-12T03:26:06.269Z,14.37
2023-05-12T03:28:32.728Z,14.61
2023-05-12T03:30:59.243Z,14.43
2023-05-12T03:33:25.830Z,14.46
2023-05-12T03:35:52.285Z,14.58
2023-05-12T03:38:18.703Z,14.46
2023-05-12T03:40:45.244Z,14.60
2023-05-12T03:43:11.657Z,14.60
2023-05-12T03:45:38.126Z,14.53
2023-05-12T03:48:06.947Z,14.62
2023-05-12T03:50:33.432Z,14.61
2023-05-12T03:53:00.679Z,14.48
2023-05-12T03:55:27.084Z,14.48
2023-05-12T03:57:53.466Z,14.62
2023-05-12T04:00:20.485Z,14.59
2023-05-12T04:02:47.420Z,14.61
2023-05-12T04:05:14.214Z,14.64
2023-05-12T04:07:40.829Z,14.68
2023-05-12T04:10:08.304Z,14.68
2023-05-12T04:12:34.680Z,14.31
2023-05-12T04:15:01.519Z,14.72
2023-05-12T04:17:28.062Z,14.71
2023-05-12T04:19:54.532Z,14.59
2023-05-12T04:22:22.829Z,14.73
2023-05-12T04:24:50.716Z,14.78
2023-05-12T04:27:17.216Z,14.74
2023-05-12T04:29:43.733Z,14.87
2023-05-12T04:32:10.413Z,14.79
2023-05-12T04:34:37.108Z,14.63
2023-05-12T04:37:03.632Z,14.91
2023-05-12T04:39:30.296Z,14.84
2023-05-12T04:42:00.577Z,15.00
2023-05-12T04:44:26.908Z,15.27
2023-05-12T04:46:56.211Z,14.85
2023-05-12T04:49:22.823Z,15.02
2023-05-12T04:51:49.345Z,15.07
2023-05-12T04:54:15.871Z,15.26
2023-05-12T04:56:42.295Z,15.30
2023-05-12T04:59:08.926Z,15.32
2023-05-12T05:01:35.421Z,15.33
2023-05-12T05:04:01.885Z,15.45
2023-05-12T05:06:28.387Z,15.33
2023-05-12T05:08:55.841Z,15.56
2023-05-12T05:11:22.724Z,15.49
2023-05-12T05:13:49.375Z,15.62
2023-05-12T05:16:15.892Z,15.76
2023-05-12T05:18:46.248Z,15.82
2023-05-12T05:21:16.376Z,15.77
2023-05-12T05:23:43.004Z,15.75
2023-05-12T05:26:09.630Z,16.06
2023-05-12T05:28:37.257Z,16.12
2023-05-12T05:31:03.745Z,15.98
2023-05-12T05:33:30.380Z,16.27
2023-05-12T05:35:57.216Z,16.45
2023-05-12T05:38:23.721Z,16.43
2023-05-12T05:40:53.673Z,16.64
2023-05-12T05:43:20.906Z,16.71
2023-05-12T05:45:49.662Z,16.63
2023-05-12T05:48:16.305Z,16.92
2023-05-12T05:50:42.886Z,16.92
2023-05-12T05:53:12.474Z,17.03
2023-05-12T05:55:38.927Z,17.21
2023-05-12T05:58:05.734Z,17.23
2023-05-12T06:00:32.118Z,17.43
2023-05-12T06:02:58.699Z,17.54
2023-05-12T06:05:25.412Z,17.35
2023-05-12T06:07:51.826Z,17.53
2023-05-12T06:10:18.631Z,17.76
2023-05-12T06:12:45.908Z,17.95
2023-05-12T06:15:12.449Z,17.97
2023-05-12T06:17:39.535Z,18.23
2023-05-12T06:20:06.673Z,18.30
2023-05-12T06:22:34.672Z,18.57
2023-05-12T06:25:01.428Z,18.76
2023-05-12T06:27:27.827Z,18.85
2023-05-12T06:29:54.279Z,18.64
2023-05-12T06:32:20.845Z,19.24
2023-05-12T06:34:47.288Z,19.13
2023-05-12T06:37:13.696Z,19.54
2023-05-12T06:39:40.373Z,19.77
2023-05-12T06:42:06.824Z,19.64
2023-05-12T06:44:33.358Z,19.98
2023-05-12T06:46:59.914Z,20.27
2023-05-12T06:49:26.370Z,20.23
2023-05-12T06:51:52.902Z,20.61
2023-05-12T06:54:19.497Z,20.78
2023-05-12T06:56:46.326Z,20.83
2023-05-12T06:59:13.307Z,20.85
2023-05-12T07:01:40.754Z,20.93
2023-05-12T07:04:07.996Z,21.35
2023-05-12T07:06:41.942Z,21.17
2023-05-12T07:09:08.489Z,21.65
2023-05-12T07:11:35.022Z,21.39
2023-05-12T07:14:01.495Z,21.87
2023-05-12T07:16:27.903Z,21.87
2023-05-12T07:18:54.543Z,22.08
2023-05-12T07:21:21.822Z,22.15
2023-05-12T07:23:48.858Z,22.15
2023-05-12T07:26:17.090Z,22.22
2023-05-12T07:28:43.531Z,22.45
2023-05-12T07:31:10.559Z,22.55
2023-05-12T07:33:37.207Z,22.65
2023-05-12T07:36:04.809Z,22.75
2023-05-12T07:38:32.088Z,22.71
2023-05-12T07:40:59.335Z,22.96
2023-05-12T07:43:26.126Z,23.08
2023-05-12T07:45:52.828Z,23.21
2023-05-12T07:48:19.225Z,23.39
2023-05-12T07:50:45.720Z,23.50
2023-05-12T07:53:12.227Z,23.53
2023-05-12T07:55:38.808Z,23.54
2023-05-12T07:58:05.245Z,23.91
2023-05-12T08:00:31.872Z,24.01
2023-05-12T08:02:58.550Z,24.04
2023-05-12T08:05:25.244Z,24.24
2023-05-12T08:07:52.243Z,24.12
2023-05-12T08:10:21.372Z,24.37
2023-05-12T08:12:48.110Z,24.55
2023-05-12T08:15:14.705Z,24.59
2023-05-12T08:17:41.916Z,24.67
2023-05-12T08:20:09.111Z,24.80
2023-05-12T08:22:35.640Z,24.87
2023-05-12T08:25:02.235Z,24.96
2023-05-12T08:27:29.578Z,25.14
2023-05-12T08:29:56.046Z,25.13
2023-05-12T08:32:22.642Z,25.34
2023-05-12T08:34:49.152Z,25.47
2023-05-12T08:37:15.603Z,25.61
2023-05-12T08:39:42.108Z,25.71
2023-05-12T08:42:23.671Z,25.95
2023-05-12T08:44:50.351Z,25.89
2023-05-12T08:47:18.824Z,25.78
2023-05-12T08:49:51.743Z,26.19
2023-05-12T08:52:22.120Z,26.21
2023-05-12T08:54:56.132Z,26.34
2023-05-12T08:57:24.167Z,26.27
2023-05-12T08:59:54.012Z,26.24
2023-05-12T09:02:23.219Z,26.13
2023-05-12T09:04:51.268Z,26.13
2023-05-12T09:07:24.337Z,26.10
2023-05-12T09:09:56.832Z,26.01
2023-05-12T09:12:25.605Z,26.01
2023-05-12T09:15:03.962Z,26.09
2023-05-12T09:17:30.614Z,26.07
2023-05-12T09:19:57.149Z,26.16
2023-05-12T09:22:36.194Z,26.64
2023-05-12T09:25:21.616Z,26.96
2023-05-12T09:27:52.535Z,27.18
2023-05-12T09:30:29.624Z,27.51
2023-05-12T09:33:07.493Z,27.79
2023-05-12T09:35:39.251Z,28.01
2023-05-12T09:38:09.748Z,28.20
2023-05-12T09:40:36.386Z,28.41
2023-05-12T09:43:05.471Z,28.64
2023-05-12T09:45:36.462Z,28.96
2023-05-12T09:48:11.428Z,29.21
2023-05-12T09:50:50.385Z,29.30
2023-05-12T09:53:18.338Z,29.48
2023-05-12T09:55:46.593Z,29.56
2023-05-12T09:58:17.954Z,29.69
2023-05-12T10:01:02.389Z,29.83
2023-05-12T10:03:34.282Z,29.95
2023-05-12T10:06:04.178Z,30.10
2023-05-12T10:08:40.678Z,30.12
2023-05-12T10:11:08.116Z,29.92
2023-05-12T10:13:35.347Z,30.11
2023-05-12T10:16:03.148Z,30.53
2023-05-12T10:18:31.477Z,30.62
2023-05-12T10:20:58.080Z,30.75
2023-05-12T10:23:26.745Z,30.84
2023-05-12T10:25:58.572Z,30.95
2023-05-12T10:28:25.304Z,30.97
2023-05-12T10:30:52.850Z,30.63
2023-05-12T10:33:19.565Z,30.67
2023-05-12T10:35:48.559Z,30.49
2023-05-12T10:38:21.844Z,30.19
2023-05-12T10:40:52.511Z,30.29
2023-05-12T10:43:23.830Z,30.19
2023-05-12T10:46:12.369Z,30.10
2023-05-12T10:49:07.481Z,30.23
2023-05-12T10:51:46.142Z,29.92
2023-05-12T10:54:19.721Z,29.77
2023-05-12T10:56:47.369Z,29.50
2023-05-12T10:59:14.893Z,29.40
2023-05-12T11:01:43.105Z,29.35
2023-05-12T11:04:15.615Z,29.02
2023-05-12T11:06:45.025Z,29.45
2023-05-12T11:09:13.336Z,29.74
2023-05-12T11:11:40.566Z,28.95
2023-05-12T11:14:08.353Z,28.83
2023-05-12T11:16:41.199Z,28.23
2023-05-12T11:19:07.791Z,28.15
2023-05-12T11:21:34.501Z,27.91
2023-05-12T11:24:02.121Z,27.73
2023-05-12T11:26:29.697Z,27.50
2023-05-12T11:28:59.703Z,27.46
2023-05-12T11:31:26.573Z,27.32
2023-05-12T11:34:12.793Z,27.40
2023-05-12T11:36:44.296Z,27.62
2023-05-12T11:39:32.585Z,27.91
2023-05-12T11:42:12.214Z,28.09
2023-05-12T11:44:47.756Z,28.31
2023-05-12T11:47:15.672Z,28.23
2023-05-12T11:49:53.023Z,28.44
2023-05-12T11:52:21.334Z,28.38
2023-05-12T11:54:51.595Z,28.38
2023-05-12T11:57:32.490Z,28.49
2023-05-12T12:00:01.322Z,28.42
2023-05-12T12:02:28.378Z,28.65
2023-05-12T12:04:55.193Z,28.69
2023-05-12T12:07:39.807Z,28.78
2023-05-12T12:10:17.217Z,28.68
2023-05-12T12:12:44.633Z,28.57
2023-05-12T12:15:12.032Z,28.58
2023-05-12T12:17:39.834Z,28.67
2023-05-12T12:20:08.142Z,28.89
2023-05-12T12:22:35.309Z,29.17
2023-05-12T12:25:03.253Z,29.42
2023-05-12T12:27:29.947Z,29.47
2023-05-12T12:29:56.479Z,29.21
2023-05-12T12:32:23.025Z,28.93
2023-05-12T12:34:50.172Z,28.59
2023-05-12T12:37:17.132Z,28.26
2023-05-12T12:39:43.714Z,28.04
2023-05-12T12:42:10.171Z,27.78
2023-05-12T12:44:36.606Z,27.60
2023-05-12T12:47:03.406Z,27.56
2023-05-12T12:49:29.810Z,27.53
2023-05-12T12:51:56.321Z,27.65
2023-05-12T12:54:23.006Z,27.69
2023-05-12T12:56:49.425Z,27.99
2023-05-12T12:59:15.907Z,28.11
2023-05-12T13:01:43.067Z,28.47
2023-05-12T13:04:09.596Z,28.51
2023-05-12T13:06:36.663Z,28.60
2023-05-12T13:09:03.888Z,28.17
2023-05-12T13:11:30.517Z,28.57
2023-05-12T13:13:56.904Z,28.38
2023-05-12T13:16:23.414Z,28.16
2023-05-12T13:18:49.895Z,28.08
2023-05-12T13:21:17.904Z,28.01
2023-05-12T13:23:44.300Z,27.65
2023-05-12T13:26:10.713Z,27.85
2023-05-12T13:28:37.151Z,27.80
2023-05-12T13:31:03.715Z,27.88
2023-05-12T13:33:30.187Z,27.98
2023-05-12T13:35:57.038Z,28.10
2023-05-12T13:38:23.464Z,28.35
2023-05-12T13:40:50.208Z,28.60
2023-05-12T13:43:16.739Z,28.76
2023-05-12T13:45:43.182Z,29.03
2023-05-12T13:48:09.672Z,29.18
2023-05-12T13:50:36.207Z,29.19
2023-05-12T13:53:02.605Z,28.92
2023-05-12T13:55:29.061Z,28.86
2023-05-12T13:57:55.498Z,29.00
2023-05-12T14:00:22.146Z,28.69
2023-05-12T14:02:48.840Z,28.79
2023-05-12T14:05:15.599Z,28.48
2023-05-12T14:07:42.620Z,28.73
2023-05-12T14:10:10.002Z,28.50
2023-05-12T14:12:36.983Z,28.57
2023-05-12T14:15:29.128Z,28.70
2023-05-12T14:17:50.542Z,28.64
2023-05-12T14:20:17.069Z,28.50
2023-05-12T14:22:43.522Z,28.38
2023-05-12T14:25:10.052Z,28.41
2023-05-12T14:27:36.553Z,28.36
2023-05-12T14:30:03.614Z,28.52
2023-05-12T14:32:30.232Z,28.49
2023-05-12T14:34:57.138Z,28.67
2023-05-12T14:37:23.567Z,28.73
2023-05-12T14:39:49.956Z,28.95
2023-05-12T14:42:17.844Z,29.14
2023-05-12T14:44:44.261Z,29.24
2023-05-12T14:47:10.685Z,29.36
2023-05-12T14:49:37.206Z,29.48
2023-05-12T14:52:03.725Z,29.51
2023-05-12T14:54:30.392Z,29.24
2023-05-12T14:56:56.846Z,28.99
2023-05-12T14:59:23.253Z,28.81
2023-05-12T15:01:50.070Z,28.68
2023-05-12T15:04:16.731Z,28.85
2023-05-12T15:06:43.149Z,28.91
2023-05-12T15:09:09.657Z,28.95
2023-05-12T15:11:37.028Z,29.05
2023-05-12T15:14:04.611Z,29.07
2023-05-12T15:16:33.055Z,28.92
2023-05-12T15:18:59.703Z,29.26
2023-05-12T15:21:26.346Z,29.20
2023-05-12T15:23:52.790Z,29.07
2023-05-12T15:26:31.911Z,28.82
2023-05-12T15:28:59.775Z,29.01
2023-05-12T15:31:28.916Z,28.99
2023-05-12T15:33:56.852Z,28.98
2023-05-12T15:36:23.286Z,29.08
2023-05-12T15:38:49.736Z,29.14
2023-05-12T15:41:16.202Z,29.14
2023-05-12T15:43:42.636Z,29.14
2023-05-12T15:46:11.053Z,29.10
2023-05-12T15:48:37.690Z,28.91
2023-05-12T15:51:04.351Z,28.60
2023-05-12T15:53:31.454Z,28.31
2023-05-12T15:56:02.551Z,27.96
2023-05-12T15:58:29.373Z,27.46
2023-05-12T16:00:55.905Z,27.14
2023-05-12T16:03:26.427Z,26.89
2023-05-12T16:05:53.373Z,26.88
2023-05-12T16:08:29.171Z,27.11
2023-05-12T16:10:55.779Z,27.22
2023-05-12T16:13:22.604Z,27.16
2023-05-12T16:15:52.006Z,27.38
2023-05-12T16:18:18.917Z,27.50
2023-05-12T16:20:49.857Z,27.54
2023-05-12T16:23:16.680Z,27.41
2023-05-12T16:25:45.629Z,27.14
2023-05-12T16:28:12.466Z,27.06
2023-05-12T16:30:39.247Z,26.86
2023-05-12T16:33:07.291Z,26.57
2023-05-12T16:35:34.171Z,26.55
2023-05-12T16:38:01.148Z,26.43
2023-05-12T16:40:27.824Z,26.44
2023-05-12T16:42:55.099Z,26.46
2023-05-12T16:45:23.224Z,26.27
2023-05-12T16:50:17.523Z,26.56
2023-05-12T16:52:44.249Z,26.48
2023-05-12T16:55:11.128Z,26.61
2023-05-12T16:57:37.646Z,26.65
2023-05-12T17:00:06.672Z,26.71
2023-05-12T17:02:33.413Z,26.77
2023-05-12T17:05:02.797Z,26.72
2023-05-12T17:07:29.167Z,26.59
2023-05-12T17:09:55.543Z,26.46
2023-05-12T17:12:22.281Z,26.20
2023-05-12T17:14:59.321Z,26.34
2023-05-12T17:17:33.356Z,26.31
2023-05-12T17:20:00.725Z,26.18
2023-05-12T17:22:27.950Z,26.28
2023-05-12T17:24:54.333Z,26.25
2023-05-12T17:27:20.758Z,25.87
2023-05-12T17:29:47.475Z,26.13
2023-05-12T17:32:13.868Z,26.07
2023-05-12T17:34:40.292Z,26.06
2023-05-12T17:37:06.828Z,25.95
2023-05-12T17:39:34.168Z,26.05
2023-05-12T17:42:00.659Z,26.09
2023-05-12T17:44:27.059Z,25.84
2023-05-12T17:46:53.607Z,26.02
2023-05-12T17:49:20.050Z,25.95
2023-05-12T17:51:49.404Z,25.84
2023-05-12T17:54:16.213Z,25.67
2023-05-12T17:56:44.661Z,25.53
2023-05-12T17:59:12.311Z,25.36
2023-05-12T18:01:38.933Z,25.24
2023-05-12T18:04:05.500Z,25.06
2023-05-12T18:06:32.698Z,24.93
2023-05-12T18:08:59.127Z,24.86
2023-05-12T18:11:26.103Z,24.63
2023-05-12T18:13:53.679Z,24.47
2023-05-12T18:16:28.678Z,24.44
2023-05-12T18:18:56.295Z,24.42
2023-05-12T18:21:22.809Z,24.13
2023-05-12T18:23:49.242Z,24.14
2023-05-12T18:26:15.729Z,23.97
2023-05-12T18:28:42.316Z,23.73
2023-05-12T18:31:16.077Z,23.46
2023-05-12T18:33:45.741Z,23.24
2023-05-12T18:36:12.866Z,22.99
2023-05-12T18:38:39.422Z,22.66
2023-05-12T18:41:06.142Z,22.39
2023-05-12T18:43:32.724Z,22.05
2023-05-12T18:45:59.230Z,21.48
2023-05-12T18:48:25.713Z,21.28
2023-05-12T18:50:52.468Z,21.18
2023-05-12T18:53:18.917Z,21.12
2023-05-12T18:55:45.564Z,20.90
2023-05-12T18:58:12.116Z,20.72
2023-05-12T19:00:39.541Z,20.51
2023-05-12T19:03:06.071Z,20.21
2023-05-12T19:05:32.594Z,20.09
2023-05-12T19:07:58.988Z,20.00
2023-05-12T19:10:26.715Z,19.78
2023-05-12T19:12:53.202Z,19.58
2023-05-12T19:15:21.966Z,19.57
2023-05-12T19:17:49.335Z,19.25
2023-05-12T19:20:16.463Z,19.25
2023-05-12T19:22:44.190Z,19.05
2023-05-12T19:25:10.930Z,19.05
2023-05-12T19:27:37.541Z,18.62
2023-05-12T19:30:05.451Z,18.81
2023-05-12T19:32:32.853Z,18.70
2023-05-12T19:35:01.013Z,18.59
2023-05-12T19:37:27.545Z,18.47
2023-05-12T19:39:54.060Z,18.39
2023-05-12T19:42:22.655Z,18.26
2023-05-12T19:44:52.185Z,18.20
2023-05-12T19:47:19.012Z,18.05
2023-05-12T19:49:45.622Z,17.97
2023-05-12T19:52:12.275Z,17.85
2023-05-12T19:54:38.891Z,17.74
2023-05-12T19:57:05.633Z,17.68
2023-05-12T19:59:32.292Z,17.47
2023-05-12T20:01:58.929Z,17.45
2023-05-12T20:04:26.032Z,17.23
2023-05-12T20:06:54.516Z,17.48
2023-05-12T20:09:23.185Z,17.41
2023-05-12T20:11:49.604Z,17.34
2023-05-12T20:14:16.535Z,17.23
2023-05-12T20:16:43.351Z,17.19
2023-05-12T20:19:10.008Z,17.10
2023-05-12T20:21:36.766Z,17.02
2023-05-12T20:24:03.937Z,16.93
2023-05-12T20:26:30.649Z,16.78
2023-05-12T20:28:59.636Z,16.63
2023-05-12T20:31:27.373Z,16.67
2023-05-12T20:33:58.007Z,16.59
2023-05-12T20:36:24.716Z,16.17
2023-05-12T20:38:51.578Z,16.30
2023-05-12T20:41:18.759Z,16.40
2023-05-12T20:43:45.940Z,16.31
2023-05-12T20:46:12.731Z,16.09
2023-05-12T20:48:39.501Z,16.17
2023-05-12T20:51:15.569Z,16.06
2023-05-12T20:53:42.327Z,16.03
2023-05-12T20:56:08.969Z,15.97
2023-05-12T20:58:35.867Z,15.90
2023-05-12T21:01:02.441Z,15.82
2023-05-12T21:03:29.327Z,15.46
2023-05-12T21:05:56.118Z,15.73
2023-05-12T21:08:22.960Z,15.63
2023-05-12T21:10:49.581Z,15.27
2023-05-12T21:13:16.774Z,15.58
2023-05-12T21:15:43.234Z,15.52
2023-05-12T21:18:10.132Z,15.47
2023-05-12T21:20:36.833Z,15.41
2023-05-12T21:23:03.297Z,15.28
2023-05-12T21:25:30.019Z,14.94
2023-05-12T21:27:56.714Z,15.30
2023-05-12T21:30:23.382Z,15.27
2023-05-12T21:32:50.678Z,15.02
2023-05-12T21:35:17.298Z,15.19
2023-05-12T21:37:43.932Z,15.04
2023-05-12T21:40:10.862Z,15.06
2023-05-12T21:42:37.490Z,15.01
2023-05-12T21:45:04.561Z,14.97
2023-05-12T21:47:31.173Z,14.91
2023-05-12T21:49:58.075Z,14.83
2023-05-12T21:52:24.990Z,14.73
2023-05-12T21:54:51.599Z,14.77
2023-05-12T21:57:18.503Z,14.71
2023-05-12T21:59:44.994Z,14.54
2023-05-12T22:02:11.510Z,14.61
2023-05-12T22:04:38.175Z,14.56
2023-05-12T22:07:04.972Z,14.39
2023-05-12T22:09:31.662Z,14.13
2023-05-12T22:11:58.267Z,14.36
2023-05-12T22:14:24.876Z,14.38
2023-05-12T22:16:51.395Z,14.06
2023-05-12T22:19:18.321Z,14.25
2023-05-12T22:21:45.750Z,14.20
2023-05-12T22:24:12.268Z,14.09
2023-05-12T22:26:38.755Z,13.98
2023-05-12T22:29:05.196Z,14.00
2023-05-12T22:31:31.814Z,13.95
2023-05-12T22:33:58.267Z,13.65
2023-05-12T22:36:24.831Z,13.79
2023-05-12T22:38:51.249Z,13.61
2023-05-12T22:41:17.654Z,13.40
2023-05-12T22:43:44.094Z,13.61
2023-05-12T22:46:10.562Z,13.51
2023-05-12T22:48:39.503Z,13.44
2023-05-12T22:51:06.658Z,13.19
2023-05-12T22:53:35.640Z,13.27
2023-05-12T22:56:03.315Z,13.29
2023-05-12T22:58:29.961Z,13.23
2023-05-12T23:00:56.522Z,13.17
2023-05-12T23:03:22.969Z,12.97
2023-05-12T23:05:49.645Z,12.93
2023-05-12T23:08:16.503Z,13.03
2023-05-12T23:10:42.900Z,12.98
2023-05-12T23:13:09.510Z,12.76
2023-05-12T23:15:36.040Z,12.63
2023-05-12T23:18:02.591Z,12.54
2023-05-12T23:20:29.034Z,12.57
2023-05-12T23:22:56.597Z,12.52
2023-05-12T23:25:23.137Z,12.45
2023-05-12T23:27:49.628Z,12.37
2023-05-12T23:30:16.268Z,12.21
2023-05-12T23:32:42.941Z,12.42
2023-05-12T23:35:10.112Z,12.44
2023-05-12T23:37:36.644Z,12.40
2023-05-12T23:40:03.991Z,12.00
2023-05-12T23:42:30.591Z,12.28
2023-05-12T23:44:57.068Z,12.22
2023-05-12T23:47:23.553Z,12.11
2023-05-12T23:49:49.968Z,12.12
2023-05-12T23:52:19.223Z,12.06
2023-05-12T23:54:45.641Z,12.00
2023-05-12T23:57:12.061Z,11.91
2023-05-12T23:59:38.588Z,11.83
